createdAt,value
2024-04-01T00:04:02.738Z,98486.30
2024-04-01T00:08:10.622Z,98489.52
2024-04-01T00:12:18.736Z,98489.55
2024-04-01T00:16:26.189Z,98484.06
2024-04-01T00:20:33.519Z,98489.35
2024-04-01T00:24:41.366Z,98489.75
2024-04-01T00:28:48.680Z,98492.80
2024-04-01T00:32:56.008Z,98499.80
2024-04-01T00:37:03.842Z,98503.70
2024-04-01T00:41:11.628Z,98506.50
2024-04-01T00:45:19.142Z,98506.24
2024-04-01T00:49:26.159Z,98506.92
2024-04-01T00:53:35.428Z,98497.98
2024-04-01T00:57:43.174Z,98491.73
2024-04-01T01:01:51.207Z,98484.35
2024-04-01T01:05:58.674Z,98470.84
2024-04-01T01:10:07.200Z,98457.88
2024-04-01T01:14:16.001Z,98457.05
2024-04-01T01:18:23.884Z,98446.39
2024-04-01T01:22:38.022Z,98444.41
2024-04-01T01:26:46.742Z,98440.04
2024-04-01T01:30:54.194Z,98436.23
2024-04-01T01:35:04.905Z,98414.31
2024-04-01T01:39:13.993Z,98413.02
2024-04-01T01:43:21.669Z,98402.98
2024-04-01T01:47:29.153Z,98396.03
2024-04-01T01:51:36.900Z,98389.89
2024-04-01T01:55:44.622Z,98383.95
2024-04-01T01:59:52.261Z,98383.91
2024-04-01T02:04:00.703Z,98388.01
2024-04-01T02:08:08.723Z,98395.41
2024-04-01T02:12:16.629Z,98399.36
2024-04-01T02:16:23.959Z,98394.94
2024-04-01T02:20:32.083Z,98399.98
2024-04-01T02:24:39.277Z,98406.70
2024-04-01T02:28:46.689Z,98400.48
2024-04-01T02:32:54.272Z,98401.64
2024-04-01T02:37:01.994Z,98393.83
2024-04-01T02:41:09.282Z,98388.81
2024-04-01T02:45:17.723Z,98373.11
2024-04-01T02:49:25.558Z,98362.71
2024-04-01T02:53:33.557Z,98354.59
2024-04-01T02:57:41.176Z,98351.84
2024-04-01T03:01:48.568Z,98337.49
2024-04-01T03:05:55.971Z,98326.41
2024-04-01T03:10:03.723Z,98331.29
2024-04-01T03:14:11.747Z,98328.70
2024-04-01T03:18:19.162Z,98329.84
2024-04-01T03:22:27.341Z,98340.36
2024-04-01T03:26:34.680Z,98347.16
2024-04-01T03:30:42.660Z,98341.25
2024-04-01T03:34:53.276Z,98340.23
2024-04-01T03:39:00.404Z,98340.34
2024-04-01T03:43:08.307Z,98353.73
2024-04-01T03:47:15.900Z,98363.73
2024-04-01T03:51:24.911Z,98369.14
2024-04-01T03:55:32.334Z,98361.13
2024-04-01T03:59:40.648Z,98354.59
2024-04-01T04:03:48.329Z,98365.21
2024-04-01T04:07:56.413Z,98373.88
2024-04-01T04:12:05.108Z,98390.38
2024-04-01T04:16:14.035Z,98382.45
2024-04-01T04:20:22.014Z,98370.52
2024-04-01T04:24:29.379Z,98361.59
2024-04-01T04:28:36.930Z,98366.93
2024-04-01T04:32:45.716Z,98371.21
2024-04-01T04:36:53.296Z,98345.89
2024-04-01T04:45:33.117Z,98323.17
2024-04-01T04:49:42.875Z,98307.86
2024-04-01T04:53:50.143Z,98303.73
2024-04-01T04:57:57.375Z,98289.25
2024-04-01T05:02:07.833Z,98293.17
2024-04-01T05:06:15.465Z,98312.80
2024-04-01T05:10:23.657Z,98322.52
2024-04-01T05:14:31.459Z,98305.05
2024-04-01T05:18:40.074Z,98299.58
2024-04-01T05:22:47.531Z,98306.80
2024-04-01T05:26:54.904Z,98310.75
2024-04-01T05:31:02.783Z,98292.64
2024-04-01T05:35:12.091Z,98297.89
2024-04-01T05:39:21.372Z,98306.84
2024-04-01T05:43:29.666Z,98301.52
2024-04-01T05:47:37.671Z,98298.50
2024-04-01T05:51:44.943Z,98306.77
2024-04-01T05:55:52.682Z,98278.55
2024-04-01T06:00:00.396Z,98238.30
2024-04-01T06:04:08.717Z,98240.09
2024-04-01T06:08:17.320Z,98265.41
2024-04-01T06:12:24.995Z,98277.09
2024-04-01T06:16:33.079Z,98274.63
2024-04-01T06:20:41.249Z,98271.09
2024-04-01T06:24:51.778Z,98267.91
2024-04-01T06:28:58.897Z,98270.98
2024-04-01T06:33:08.467Z,98276.66
2024-04-01T06:37:16.516Z,98301.13
2024-04-01T06:41:24.191Z,98296.25
2024-04-01T06:45:32.097Z,98299.09
2024-04-01T06:49:39.583Z,98303.91
2024-04-01T06:53:47.299Z,98314.71
2024-04-01T06:57:54.848Z,98323.99
2024-04-01T07:02:02.385Z,98322.48
2024-04-01T07:06:13.092Z,98322.73
2024-04-01T07:10:21.065Z,98338.62
2024-04-01T07:14:31.187Z,98336.23
2024-04-01T07:18:39.940Z,98332.19
2024-04-01T07:22:48.208Z,98319.59
2024-04-01T07:26:57.273Z,98314.10
2024-04-01T07:31:08.630Z,98317.98
2024-04-01T07:35:16.319Z,98307.89
2024-04-01T07:39:24.140Z,98295.00
2024-04-01T07:43:32.081Z,98302.08
2024-04-01T07:47:39.293Z,98293.91
2024-04-01T07:51:46.605Z,98270.70
2024-04-01T07:55:56.176Z,98259.22
2024-04-01T08:00:04.518Z,98267.83
2024-04-01T08:04:12.026Z,98267.27
2024-04-01T08:08:19.527Z,98254.79
2024-04-01T08:12:27.234Z,98240.48
2024-04-01T08:16:34.842Z,98225.64
2024-04-01T08:20:42.991Z,98205.58
2024-04-01T08:24:51.895Z,98197.55
2024-04-01T08:29:01.180Z,98201.98
2024-04-01T08:33:11.519Z,98182.55
2024-04-01T08:37:19.099Z,98171.77
2024-04-01T08:41:33.583Z,98162.96
2024-04-01T08:45:44.143Z,98191.86
2024-04-01T08:49:56.772Z,98201.42
2024-04-01T08:54:06.043Z,98206.02
2024-04-01T08:58:13.491Z,98206.45
2024-04-01T09:02:22.624Z,98206.36
2024-04-01T09:06:31.684Z,98205.90
2024-04-01T09:10:38.806Z,98197.16
2024-04-01T09:14:45.903Z,98199.05
2024-04-01T09:18:54.480Z,98186.08
2024-04-01T09:23:02.846Z,98184.17
2024-04-01T09:27:10.135Z,98178.55
2024-04-01T09:31:20.234Z,98173.70
2024-04-01T09:35:29.443Z,98150.36
2024-04-01T09:39:37.990Z,98132.20
2024-04-01T09:43:51.628Z,98126.43
2024-04-01T09:48:00.506Z,98122.29
2024-04-01T09:52:09.307Z,98117.14
2024-04-01T09:56:59.556Z,98117.35
2024-04-01T10:01:21.781Z,98095.14
2024-04-01T10:06:08.916Z,98083.45
2024-04-01T10:10:49.243Z,98080.20
2024-04-01T10:15:20.413Z,98079.67
2024-04-01T10:20:00.733Z,98079.29
2024-04-01T10:24:34.221Z,98092.83
2024-04-01T10:29:12.577Z,98081.96
2024-04-01T10:33:45.069Z,98067.19
2024-04-01T10:38:27.771Z,98074.63
2024-04-01T10:42:59.989Z,98076.55
2024-04-01T10:47:30.464Z,98082.79
2024-04-01T10:51:57.324Z,98072.96
2024-04-01T10:56:24.524Z,98061.61
2024-04-01T11:00:52.897Z,98050.41
2024-04-01T11:05:30.810Z,98043.38
2024-04-01T11:09:50.428Z,98046.99
2024-04-01T11:13:57.748Z,98061.10
2024-04-01T11:18:21.618Z,98057.48
2024-04-01T11:22:46.193Z,98047.48
2024-04-01T11:27:11.761Z,98035.55
2024-04-01T11:31:22.241Z,98023.55
2024-04-01T11:35:43.329Z,98023.95
2024-04-01T11:39:53.890Z,98019.84
2024-04-01T11:44:01.899Z,98013.34
2024-04-01T11:48:11.422Z,98021.90
2024-04-01T11:52:20.214Z,98019.20
2024-04-01T11:56:42.347Z,98002.42
2024-04-01T12:00:57.923Z,97991.86
2024-04-01T12:05:07.761Z,97975.55
2024-04-01T12:09:16.176Z,97962.70
2024-04-01T12:13:30.403Z,97972.20
2024-04-01T12:17:40.175Z,97984.59
2024-04-01T12:21:51.838Z,97989.15
2024-04-01T12:26:12.173Z,97994.13
2024-04-01T12:30:22.149Z,97996.56
2024-04-01T12:34:36.231Z,97994.61
2024-04-01T12:38:45.527Z,97995.70
2024-04-01T12:42:54.942Z,98002.26
2024-04-01T12:47:02.687Z,98003.52
2024-04-01T12:51:11.421Z,97997.71
2024-04-01T12:55:23.910Z,97992.48
2024-04-01T12:59:37.502Z,97996.64
2024-04-01T13:04:11.330Z,98005.44
2024-04-01T13:08:29.334Z,97998.69
2024-04-01T13:12:56.591Z,97996.67
2024-04-01T13:17:08.039Z,97998.13
2024-04-01T13:21:20.477Z,98000.27
2024-04-01T13:25:39.250Z,97994.13
2024-04-01T13:29:57.645Z,97982.36
2024-04-01T13:34:24.470Z,97965.55
2024-04-01T13:38:57.197Z,97965.71
2024-04-01T13:43:29.956Z,97961.25
2024-04-01T13:47:45.199Z,97957.52
2024-04-01T13:52:18.247Z,97945.80
2024-04-01T13:56:59.793Z,97945.38
2024-04-01T14:01:12.814Z,97936.33
2024-04-01T14:05:33.248Z,97927.25
2024-04-01T14:09:48.868Z,97928.61
2024-04-01T14:14:03.332Z,97930.92
2024-04-01T14:18:18.130Z,97931.88
2024-04-01T14:22:29.167Z,97938.06
2024-04-01T14:26:36.860Z,97948.35
2024-04-01T14:30:44.617Z,97950.35
2024-04-01T14:34:51.984Z,97949.85
2024-04-01T14:39:01.310Z,97956.69
2024-04-01T14:43:09.322Z,97965.24
2024-04-01T14:47:17.194Z,97973.66
2024-04-01T14:51:24.681Z,97985.51
2024-04-01T14:55:32.274Z,97989.05
2024-04-01T14:59:40.344Z,97994.37
2024-04-01T15:03:48.850Z,97993.98
2024-04-01T15:07:56.789Z,98011.05
2024-04-01T15:12:04.819Z,98015.45
2024-04-01T15:16:16.083Z,98011.33
2024-04-01T15:20:24.012Z,98012.48
2024-04-01T15:24:32.041Z,98015.27
2024-04-01T15:28:40.352Z,98010.48
2024-04-01T15:32:48.973Z,98012.57
2024-04-01T15:36:56.494Z,98020.45
2024-04-01T15:41:04.116Z,98022.60
2024-04-01T15:45:12.846Z,98026.34
2024-04-01T15:49:21.796Z,98039.67
2024-04-01T15:53:31.092Z,98054.45
2024-04-01T15:57:38.900Z,98069.64
2024-04-01T16:01:47.084Z,98092.92
2024-04-01T16:05:58.253Z,98122.97
2024-04-01T16:10:06.857Z,98163.55
2024-04-01T16:14:22.488Z,98173.30
2024-04-01T16:18:32.476Z,98177.63
2024-04-01T16:22:40.446Z,98195.76
2024-04-01T16:26:50.082Z,98223.98
2024-04-01T16:31:02.237Z,98297.28
2024-04-01T16:35:10.147Z,98292.52
2024-04-01T16:39:18.472Z,98280.89
2024-04-01T16:43:28.053Z,98236.48
2024-04-01T16:47:37.856Z,98211.13
2024-04-01T16:51:49.477Z,98261.34
2024-04-01T16:55:59.336Z,98289.60
2024-04-01T17:00:09.970Z,98284.64
2024-04-01T17:04:17.787Z,98276.58
2024-04-01T17:08:25.280Z,98281.54
2024-04-01T17:12:33.162Z,98280.27
2024-04-01T17:16:41.656Z,98282.59
2024-04-01T17:20:50.935Z,98296.59
2024-04-01T17:25:02.082Z,98303.09
2024-04-01T17:29:11.026Z,98316.24
2024-04-01T17:33:20.446Z,98331.30
2024-04-01T17:37:30.130Z,98333.42
2024-04-01T17:41:39.097Z,98338.88
2024-04-01T17:45:46.456Z,98342.42
2024-04-01T17:49:56.625Z,98347.52
2024-04-01T17:54:04.468Z,98358.76
2024-04-01T17:58:13.369Z,98365.24
2024-04-01T18:02:25.531Z,98365.66
2024-04-01T18:06:38.815Z,98366.48
2024-04-01T18:10:49.980Z,98373.95
2024-04-01T18:14:59.933Z,98385.23
2024-04-01T18:19:08.289Z,98391.56
2024-04-01T18:23:17.489Z,98382.22
2024-04-01T18:27:27.201Z,98392.42
2024-04-01T18:31:45.858Z,98390.50
2024-04-01T18:35:59.704Z,98388.23
2024-04-01T18:40:25.443Z,98382.88
2024-04-01T18:44:37.930Z,98382.13
2024-04-01T18:48:51.514Z,98385.43
2024-04-01T18:53:05.041Z,98395.62
2024-04-01T18:57:18.066Z,98387.20
2024-04-01T19:01:27.646Z,98410.60
2024-04-01T19:05:37.428Z,98410.80
2024-04-01T19:09:58.645Z,98415.16
2024-04-01T19:14:22.200Z,98442.72
2024-04-01T19:18:30.730Z,98460.44
2024-04-01T19:22:44.967Z,98477.23
2024-04-01T19:27:05.259Z,98460.39
2024-04-01T19:31:19.261Z,98464.77
2024-04-01T19:35:27.376Z,98467.23
2024-04-01T19:39:37.322Z,98458.22
2024-04-01T19:43:47.695Z,98439.55
2024-04-01T19:47:57.453Z,98441.08
2024-04-01T19:52:10.553Z,98454.95
2024-04-01T19:56:27.310Z,98461.06
2024-04-01T20:00:39.648Z,98476.25
2024-04-01T20:04:50.088Z,98485.13
2024-04-01T20:09:01.915Z,98492.98
2024-04-01T20:13:19.795Z,98494.29
2024-04-01T20:17:39.801Z,98496.98
2024-04-01T20:21:47.947Z,98510.94
2024-04-01T20:25:58.363Z,98520.78
2024-04-01T20:30:33.952Z,98525.70
2024-04-01T20:34:49.110Z,98524.73
2024-04-01T20:38:56.189Z,98517.03
2024-04-01T20:43:07.738Z,98505.80
2024-04-01T20:47:18.564Z,98500.84
2024-04-01T20:51:34.953Z,98503.19
2024-04-01T20:55:52.487Z,98510.70
2024-04-01T21:00:02.971Z,98522.03
2024-04-01T21:04:12.154Z,98535.33
2024-04-01T21:08:27.405Z,98542.32
2024-04-01T21:12:35.338Z,98533.30
2024-04-01T21:16:43.210Z,98530.55
2024-04-01T21:20:51.914Z,98534.84
2024-04-01T21:24:58.896Z,98545.80
2024-04-01T21:29:06.625Z,98560.08
2024-04-01T21:33:13.988Z,98570.00
2024-04-01T21:37:21.713Z,98570.96
2024-04-01T21:41:28.807Z,98557.41
2024-04-01T21:45:36.455Z,98560.92
2024-04-01T21:49:43.735Z,98571.41
2024-04-01T21:53:51.422Z,98572.80
2024-04-01T21:57:58.555Z,98567.33
2024-04-01T22:02:07.898Z,98564.66
2024-04-01T22:06:15.537Z,98553.50
2024-04-01T22:10:24.812Z,98543.09
2024-04-01T22:14:32.570Z,98542.98
2024-04-01T22:18:40.055Z,98548.42
2024-04-01T22:22:49.869Z,98543.17
2024-04-01T22:26:59.405Z,98528.27
2024-04-01T22:31:12.168Z,98513.52
2024-04-01T22:35:20.220Z,98533.05
2024-04-01T22:39:27.564Z,98556.66
2024-04-01T22:43:35.934Z,98566.27
2024-04-01T22:47:43.435Z,98551.09
2024-04-01T22:51:51.962Z,98544.55
2024-04-01T22:55:59.758Z,98564.05
2024-04-01T23:00:15.961Z,98576.61
2024-04-01T23:04:26.303Z,98567.30
2024-04-01T23:08:34.150Z,98568.05
2024-04-01T23:12:42.832Z,98563.31
2024-04-01T23:16:50.116Z,98558.78
2024-04-01T23:20:59.070Z,98575.32
2024-04-01T23:25:06.652Z,98577.36
2024-04-01T23:29:13.459Z,98579.65
2024-04-01T23:33:23.168Z,98586.65
2024-04-01T23:37:30.546Z,98594.09
2024-04-01T23:41:38.348Z,98606.19
2024-04-01T23:45:53.529Z,98618.39
2024-04-01T23:50:01.147Z,98626.77
2024-04-01T23:54:09.082Z,98637.20
2024-04-01T23:58:17.360Z,98653.16
